Time;durP1;ratioP1;P1;durP2;ratioP2;P2;SDS_P1;SDS_P2;PMS_P1;PMS_P2;Temp;Humidity;BMP_temperature;BMP_pressure;BME280_temperature;BME280_humidity;BME280_pressure;Samples;Min_cycle;Max_cycle;Signal;HPM_P1;HPM_P2
2023/09/06 00:00:28;;;;;;;5.78;3.63;;;18.50;99.90;;;;;;4988273;28;20035;-65
2023/09/06 00:02:56;;;;;;;5.65;2.88;;;18.40;99.90;;;;;;4988078;28;20037;-64
2023/09/06 00:05:22;;;;;;;4.65;2.60;;;18.30;99.90;;;;;;4986580;28;20549;-65
2023/09/06 00:07:47;;;;;;;4.82;2.78;;;18.30;99.90;;;;;;4986609;28;20069;-64
2023/09/06 00:10:14;;;;;;;9.68;2.60;;;18.20;99.90;;;;;;4986590;28;20022;-64
2023/09/06 00:12:40;;;;;;;10.75;3.10;;;18.20;99.90;;;;;;4986369;28;20064;-64
2023/09/06 00:15:06;;;;;;;3.45;2.50;;;18.10;99.90;;;;;;4989084;28;20027;-63
2023/09/06 00:17:36;;;;;;;5.00;3.15;;;18.10;99.90;;;;;;4990886;28;20027;-65
2023/09/06 00:20:05;;;;;;;12.10;2.88;;;17.90;99.90;;;;;;4990285;28;20448;-64
2023/09/06 00:22:31;;;;;;;4.15;2.70;;;17.90;99.90;;;;;;4985127;28;20053;-64
2023/09/06 00:24:57;;;;;;;5.22;2.55;;;17.80;99.90;;;;;;4989396;28;20030;-64
2023/09/06 00:27:23;;;;;;;5.72;2.72;;;17.70;99.90;;;;;;4989140;28;20039;-64
2023/09/06 00:29:48;;;;;;;10.75;2.83;;;17.70;99.90;;;;;;4988848;28;20049;-64
2023/09/06 00:32:14;;;;;;;5.38;2.95;;;17.60;99.90;;;;;;4989281;28;20030;-64
2023/09/06 00:34:40;;;;;;;5.40;2.58;;;17.60;99.90;;;;;;4990632;28;20029;-64
2023/09/06 00:37:07;;;;;;;5.35;2.78;;;17.50;99.90;;;;;;4989727;28;20033;-64
2023/09/06 00:39:32;;;;;;;5.90;3.13;;;17.50;99.90;;;;;;4990312;28;20045;-65
2023/09/06 00:42:00;;;;;;;5.95;3.10;;;17.40;99.90;;;;;;4989293;28;20026;-64
2023/09/06 00:44:25;;;;;;;6.43;2.78;;;17.30;99.90;;;;;;4988667;28;20069;-63
2023/09/06 00:46:51;;;;;;;6.53;3.35;;;17.20;99.90;;;;;;4986274;28;20481;-65
2023/09/06 00:49:17;;;;;;;3.85;2.63;;;17.10;99.90;;;;;;4990038;28;20080;-64
2023/09/06 00:51:43;;;;;;;6.78;3.17;;;17.10;99.90;;;;;;4989404;28;20549;-65
2023/09/06 00:54:08;;;;;;;7.38;3.20;;;17.00;99.90;;;;;;4989264;28;20034;-65
2023/09/06 00:56:34;;;;;;;6.63;3.15;;;17.00;99.90;;;;;;4988990;28;20030;-65
2023/09/06 00:59:01;;;;;;;6.65;3.13;;;16.90;99.90;;;;;;4989356;28;20126;-64
2023/09/06 01:01:28;;;;;;;10.25;2.88;;;16.90;99.90;;;;;;4987789;28;20023;-65
2023/09/06 01:03:53;;;;;;;5.45;2.88;;;16.90;99.90;;;;;;4991066;28;20073;-64
2023/09/06 01:06:26;;;;;;;8.35;3.05;;;16.90;99.90;;;;;;4987563;28;20038;-64
2023/09/06 01:08:57;;;;;;;3.97;3.15;;;16.90;99.90;;;;;;4989257;28;20428;-64
2023/09/06 01:11:24;;;;;;;11.95;3.10;;;16.80;99.90;;;;;;4988129;28;20175;-63
2023/09/06 01:13:53;;;;;;;6.05;2.80;;;16.90;99.90;;;;;;4984146;28;20030;-65
2023/09/06 01:16:26;;;;;;;6.68;3.08;;;16.80;99.90;;;;;;4991008;28;20022;-64
2023/09/06 01:18:52;;;;;;;4.93;2.90;;;16.80;99.90;;;;;;4989931;28;20101;-64
2023/09/06 01:21:20;;;;;;;5.25;3.30;;;16.80;99.90;;;;;;4992104;28;20564;-64
2023/09/06 01:23:47;;;;;;;5.93;2.92;;;16.80;99.90;;;;;;4991406;28;20023;-64
2023/09/06 01:26:13;;;;;;;6.10;3.40;;;16.80;99.90;;;;;;4991018;28;20120;-64
2023/09/06 01:28:39;;;;;;;4.63;3.13;;;16.80;99.90;;;;;;4988724;28;20031;-64
2023/09/06 01:31:05;;;;;;;4.28;3.40;;;16.80;99.90;;;;;;4992504;28;20151;-63
2023/09/06 01:33:31;;;;;;;6.07;3.92;;;16.80;99.90;;;;;;4994167;28;20134;-65
2023/09/06 01:35:57;;;;;;;9.25;3.50;;;16.80;99.90;;;;;;4989963;28;20089;-64
2023/09/06 01:38:23;;;;;;;5.22;2.78;;;16.80;99.90;;;;;;4986220;28;20026;-64
2023/09/06 01:40:49;;;;;;;9.02;3.95;;;16.80;99.90;;;;;;4988498;28;20077;-64
2023/09/06 01:43:14;;;;;;;6.90;3.50;;;16.80;99.90;;;;;;4992302;28;20071;-64
2023/09/06 01:45:50;;;;;;;4.85;2.95;;;16.70;99.90;;;;;;4990594;28;20045;-63
2023/09/06 01:48:19;;;;;;;5.03;3.10;;;16.60;99.90;;;;;;4986912;28;20026;-64
2023/09/06 01:50:45;;;;;;;9.65;3.13;;;16.50;99.90;;;;;;4990606;28;20081;-64
2023/09/06 01:53:13;;;;;;;10.32;3.10;;;16.50;99.90;;;;;;4987341;28;20034;-63
2023/09/06 01:55:40;;;;;;;4.85;3.33;;;16.40;99.90;;;;;;4994020;28;20011;-65
2023/09/06 01:58:06;;;;;;;7.60;3.35;;;16.40;99.90;;;;;;4989412;28;20034;-62
2023/09/06 02:00:34;;;;;;;6.22;3.40;;;16.40;99.90;;;;;;4990179;28;20499;-64
2023/09/06 02:03:00;;;;;;;10.57;4.20;;;16.40;99.90;;;;;;4993626;28;20036;-64
2023/09/06 02:05:26;;;;;;;7.43;4.20;;;16.40;99.90;;;;;;4986013;28;20038;-64
2023/09/06 02:07:52;;;;;;;7.25;4.20;;;16.40;99.90;;;;;;4991731;28;20400;-64
2023/09/06 02:10:17;;;;;;;5.65;3.38;;;16.40;99.90;;;;;;4993298;28;20030;-65
2023/09/06 02:12:43;;;;;;;7.30;3.95;;;16.30;99.90;;;;;;4991620;28;20037;-65
2023/09/06 02:15:13;;;;;;;5.15;3.50;;;16.20;99.90;;;;;;4986553;28;20027;-64
2023/09/06 02:17:39;;;;;;;8.45;3.83;;;16.20;99.90;;;;;;4992693;28;20030;-65
2023/09/06 02:20:21;;;;;;;6.00;3.78;;;16.10;99.90;;;;;;4987469;28;20030;-65
2023/09/06 02:22:55;;;;;;;7.13;3.10;;;16.10;99.90;;;;;;4991837;28;20382;-64
2023/09/06 02:25:22;;;;;;;;;;;16.00;99.90;;;;;;4990236;28;20026;-64
2023/09/06 02:27:47;;;;;;;8.60;3.50;;;16.00;99.90;;;;;;4990000;28;20303;-65
2023/09/06 02:30:13;;;;;;;8.13;3.97;;;16.00;99.90;;;;;;4986412;28;20038;-64
2023/09/06 02:32:40;;;;;;;12.95;4.85;;;16.00;99.90;;;;;;4992099;28;20092;-64
2023/09/06 02:35:07;;;;;;;10.25;4.05;;;16.00;99.90;;;;;;4989621;28;20038;-64
2023/09/06 02:37:33;;;;;;;8.65;3.83;;;16.00;99.90;;;;;;4988472;28;20023;-65
2023/09/06 02:39:59;;;;;;;5.18;3.55;;;16.00;99.90;;;;;;4991358;28;20034;-64
2023/09/06 02:42:24;;;;;;;9.77;3.80;;;16.00;99.90;;;;;;4990468;28;20030;-65
2023/09/06 02:44:53;;;;;;;4.47;3.67;;;16.00;99.90;;;;;;4989584;28;20014;-65
2023/09/06 02:47:25;;;;;;;6.28;3.47;;;16.00;99.90;;;;;;4990323;28;20046;-65
2023/09/06 02:49:55;;;;;;;6.35;3.80;;;16.00;99.90;;;;;;4988845;28;20041;-65
2023/09/06 02:52:28;;;;;;;9.90;3.47;;;16.00;99.90;;;;;;4987579;28;20022;-65
2023/09/06 02:55:04;;;;;;;6.07;4.00;;;16.10;99.90;;;;;;4991744;28;20168;-64
2023/09/06 02:57:31;;;;;;;5.93;2.80;;;16.00;99.90;;;;;;4988382;28;20030;-65
2023/09/06 02:59:57;;;;;;;6.13;3.10;;;15.90;99.90;;;;;;4986727;28;20090;-64
2023/09/06 03:02:22;;;;;;;10.07;3.70;;;15.90;99.90;;;;;;4989647;28;20532;-64
2023/09/06 03:04:54;;;;;;;7.60;3.28;;;15.90;99.90;;;;;;4988165;28;20019;-64
2023/09/06 03:07:21;;;;;;;7.32;3.47;;;15.80;99.90;;;;;;4991336;28;20027;-64
2023/09/06 03:09:48;;;;;;;8.55;3.15;;;15.80;99.90;;;;;;4992222;28;20396;-62
2023/09/06 03:12:14;;;;;;;4.35;2.70;;;15.80;99.90;;;;;;4990634;28;20029;-64
2023/09/06 03:14:44;;;;;;;5.30;3.20;;;15.80;99.90;;;;;;5004233;28;20022;-65
2023/09/06 03:17:11;;;;;;;6.60;3.65;;;15.70;99.90;;;;;;4989889;28;20028;-64
2023/09/06 03:19:40;;;;;;;5.32;3.40;;;15.70;99.90;;;;;;4988913;28;20039;-64
2023/09/06 03:22:09;;;;;;;5.50;3.13;;;15.70;99.90;;;;;;4987433;28;20026;-65
2023/09/06 03:24:44;;;;;;;4.32;3.28;;;15.60;99.90;;;;;;4990960;28;20027;-64
2023/09/06 03:27:15;;;;;;;11.27;3.72;;;15.60;99.90;;;;;;4991819;28;20026;-62
2023/09/06 03:29:42;;;;;;;11.57;4.10;;;15.60;99.90;;;;;;4989510;28;20030;-64
2023/09/06 03:32:08;;;;;;;6.82;3.35;;;15.60;99.90;;;;;;4989394;28;20506;-64
2023/09/06 03:34:40;;;;;;;8.27;3.90;;;15.50;99.90;;;;;;4988890;28;20036;-64
2023/09/06 03:37:08;;;;;;;9.35;4.18;;;15.50;99.90;;;;;;4990353;28;20110;-64
2023/09/06 03:39:41;;;;;;;11.48;4.32;;;15.60;99.90;;;;;;4991499;28;20472;-64
2023/09/06 03:42:08;;;;;;;4.75;3.42;;;15.60;99.90;;;;;;4991745;28;20062;-64
2023/09/06 03:44:37;;;;;;;8.30;3.63;;;15.60;99.90;;;;;;4987830;28;20019;-64
2023/09/06 03:47:06;;;;;;;9.95;3.22;;;15.60;99.90;;;;;;4990787;28;20033;-65
2023/09/06 03:49:35;;;;;;;5.07;3.13;;;15.60;99.90;;;;;;4990148;28;20042;-64
2023/09/06 03:52:04;;;;;;;6.25;3.10;;;15.70;99.90;;;;;;4988637;28;20897;-64
2023/09/06 03:54:34;;;;;;;6.00;3.08;;;15.60;99.90;;;;;;4990602;28;20157;-64
2023/09/06 03:57:04;;;;;;;5.43;3.10;;;15.50;99.90;;;;;;4990612;28;20019;-64
2023/09/06 03:59:35;;;;;;;7.47;3.97;;;15.50;99.90;;;;;;4989277;28;20109;-64
2023/09/06 04:02:01;;;;;;;7.30;3.88;;;15.40;99.90;;;;;;4990274;28;20419;-64
2023/09/06 04:04:28;;;;;;;10.43;4.10;;;15.30;99.90;;;;;;4986050;28;20030;-65
2023/09/06 04:06:54;;;;;;;9.85;3.35;;;15.30;99.90;;;;;;4989381;28;20105;-64
2023/09/06 04:09:27;;;;;;;5.80;3.20;;;15.20;99.90;;;;;;4990048;28;20105;-63
2023/09/06 04:11:53;;;;;;;5.50;3.22;;;15.30;99.90;;;;;;4985044;28;20027;-64
2023/09/06 04:14:18;;;;;;;7.00;3.35;;;15.30;99.90;;;;;;4988151;28;20039;-64
2023/09/06 04:16:44;;;;;;;10.35;3.42;;;15.20;99.90;;;;;;4986801;28;20018;-64
2023/09/06 04:19:09;;;;;;;10.52;3.33;;;15.20;99.90;;;;;;4989138;28;20098;-64
2023/09/06 04:21:37;;;;;;;8.38;3.97;;;15.20;99.90;;;;;;4988993;28;20034;-64
2023/09/06 04:24:04;;;;;;;9.65;3.95;;;15.20;99.90;;;;;;4989888;28;20022;-63
2023/09/06 04:26:29;;;;;;;6.57;3.88;;;15.20;99.90;;;;;;4990174;28;20064;-65
2023/09/06 04:28:55;;;;;;;7.55;4.30;;;15.20;99.90;;;;;;4989809;28;20520;-64
2023/09/06 04:31:20;;;;;;;5.13;3.50;;;15.20;99.90;;;;;;4986716;28;20504;-64
2023/09/06 04:33:46;;;;;;;4.93;3.53;;;15.10;99.90;;;;;;4988071;28;20023;-64
2023/09/06 04:36:11;;;;;;;5.25;3.53;;;15.10;99.90;;;;;;4982675;28;20546;-64
2023/09/06 04:38:37;;;;;;;7.05;3.60;;;15.10;99.90;;;;;;4990542;28;20537;-65
2023/09/06 04:41:02;;;;;;;8.10;4.22;;;15.10;99.90;;;;;;4989011;28;20026;-64
2023/09/06 04:43:28;;;;;;;6.95;4.32;;;15.00;99.90;;;;;;4990090;28;20046;-64
2023/09/06 04:45:54;;;;;;;12.57;4.05;;;15.00;99.90;;;;;;4984469;28;20025;-64
2023/09/06 04:48:23;;;;;;;6.03;3.97;;;15.00;99.90;;;;;;4985625;28;20030;-64
2023/09/06 04:50:49;;;;;;;8.32;4.38;;;15.00;99.90;;;;;;4986105;28;20162;-64
2023/09/06 04:53:17;;;;;;;10.73;4.55;;;14.90;99.90;;;;;;4991012;28;20512;-63
2023/09/06 04:55:44;;;;;;;10.07;4.18;;;14.90;99.90;;;;;;4989113;28;20031;-62
2023/09/06 04:58:11;;;;;;;7.60;3.85;;;14.90;99.90;;;;;;4987501;28;20018;-62
2023/09/06 05:00:41;;;;;;;6.28;3.78;;;14.90;99.90;;;;;;4989671;28;20019;-64
2023/09/06 05:03:17;;;;;;;6.30;4.18;;;14.90;99.90;;;;;;4990240;28;20096;-64
2023/09/06 05:05:45;;;;;;;12.40;5.13;;;14.90;99.90;;;;;;4980749;28;20114;-64
2023/09/06 05:08:10;;;;;;;8.15;3.90;;;14.90;99.90;;;;;;4983581;28;20037;-63
2023/09/06 05:10:36;;;;;;;7.00;3.83;;;14.90;99.90;;;;;;4992878;28;20035;-64
2023/09/06 05:13:02;;;;;;;6.57;4.20;;;14.90;99.90;;;;;;4992462;28;20428;-64
2023/09/06 05:15:28;;;;;;;9.35;4.45;;;15.00;99.90;;;;;;4990892;28;20331;-64
2023/09/06 05:17:54;;;;;;;8.60;4.22;;;15.00;99.90;;;;;;4990060;28;20030;-61
2023/09/06 05:20:32;;;;;;;8.10;4.22;;;15.00;99.90;;;;;;4992680;28;21829;-62
2023/09/06 05:23:09;;;;;;;28.20;15.25;;;15.10;99.90;;;;;;4990749;28;20026;-59
2023/09/06 05:25:36;;;;;;;21.88;11.75;;;15.10;99.90;;;;;;4990908;28;20057;-61
2023/09/06 05:28:04;;;;;;;20.08;8.13;;;15.10;99.90;;;;;;4988605;28;20114;-60
2023/09/06 05:30:31;;;;;;;11.48;5.88;;;15.10;99.90;;;;;;4990160;28;20071;-60
2023/09/06 05:32:57;;;;;;;6.55;4.45;;;15.20;99.90;;;;;;4988657;28;20033;-61
2023/09/06 05:35:24;;;;;;;7.03;4.65;;;15.20;99.90;;;;;;4985563;28;20030;-61
2023/09/06 05:37:49;;;;;;;8.35;4.75;;;15.20;99.90;;;;;;4985963;28;20023;-60
2023/09/06 05:40:22;;;;;;;9.27;4.70;;;15.20;99.90;;;;;;4988086;28;20057;-61
2023/09/06 05:42:48;;;;;;;17.92;4.05;;;15.30;99.90;;;;;;4990287;28;20033;-60
2023/09/06 05:45:13;;;;;;;9.57;4.60;;;15.30;99.90;;;;;;4989006;28;20038;-62
2023/09/06 05:47:39;;;;;;;7.22;4.05;;;15.40;99.90;;;;;;4989645;28;20033;-61
2023/09/06 05:50:08;;;;;;;7.50;4.00;;;15.40;99.90;;;;;;4991869;28;20455;-62
2023/09/06 05:52:34;;;;;;;15.98;3.80;;;15.40;99.90;;;;;;4987817;28;20033;-56
2023/09/06 05:55:01;;;;;;;9.82;4.10;;;15.50;99.90;;;;;;4990916;28;20675;-58
2023/09/06 05:57:26;;;;;;;7.30;3.85;;;15.50;99.90;;;;;;4988326;28;20022;-61
2023/09/06 05:59:52;;;;;;;7.03;4.13;;;15.50;99.90;;;;;;4992089;28;20505;-60
2023/09/06 06:02:17;;;;;;;7.60;3.80;;;15.60;99.90;;;;;;4984703;28;20050;-60
2023/09/06 06:04:46;;;;;;;8.48;4.00;;;15.70;99.90;;;;;;4989137;28;20038;-61
2023/09/06 06:07:13;;;;;;;7.22;4.05;;;15.70;99.90;;;;;;4989433;28;20081;-61
2023/09/06 06:09:38;;;;;;;9.15;4.38;;;15.70;99.90;;;;;;4992360;28;20378;-61
2023/09/06 06:12:04;;;;;;;10.65;4.03;;;15.80;99.90;;;;;;4992794;28;20033;-59
2023/09/06 06:14:30;;;;;;;4.70;3.35;;;15.90;99.90;;;;;;4990683;28;20042;-58
2023/09/06 06:16:57;;;;;;;6.35;3.58;;;15.90;99.90;;;;;;4989968;28;20452;-62
2023/09/06 06:19:23;;;;;;;5.07;3.63;;;16.00;99.90;;;;;;4993060;28;20109;-60
2023/09/06 06:21:49;;;;;;;5.20;3.50;;;16.10;99.90;;;;;;4991586;28;20014;-62
2023/09/06 06:24:14;;;;;;;10.57;4.25;;;16.10;99.90;;;;;;4992477;28;20041;-59
2023/09/06 06:26:40;;;;;;;6.75;3.92;;;16.20;99.90;;;;;;4990179;28;20045;-60
2023/09/06 06:29:06;;;;;;;4.68;3.53;;;16.20;99.90;;;;;;4991052;28;20097;-60
2023/09/06 06:31:31;;;;;;;11.48;4.30;;;16.30;99.90;;;;;;4992227;28;20030;-60
2023/09/06 06:33:59;;;;;;;8.95;3.80;;;16.30;99.90;;;;;;4990704;28;20034;-56
2023/09/06 06:36:25;;;;;;;5.20;3.40;;;16.30;99.90;;;;;;4991975;28;20116;-59
2023/09/06 06:38:51;;;;;;;11.05;3.55;;;16.40;99.90;;;;;;4990703;28;20028;-61
2023/09/06 06:41:23;;;;;;;7.82;4.15;;;16.50;99.90;;;;;;4991589;28;20388;-60
2023/09/06 06:43:52;;;;;;;7.32;3.97;;;16.60;99.90;;;;;;4993010;28;20100;-61
2023/09/06 06:46:32;;;;;;;10.75;4.10;;;16.60;99.90;;;;;;4991539;28;20037;-62
2023/09/06 06:48:59;;;;;;;9.00;3.40;;;16.70;99.90;;;;;;4988905;28;20033;-60
2023/09/06 06:51:35;;;;;;;5.63;3.65;;;16.80;99.90;;;;;;4991706;28;20112;-62
2023/09/06 06:54:07;;;;;;;8.27;3.88;;;16.90;99.90;;;;;;4991317;28;20145;-60
2023/09/06 06:56:34;;;;;;;8.27;4.53;;;17.00;99.90;;;;;;4989769;28;20173;-62
2023/09/06 06:59:00;;;;;;;6.85;4.20;;;17.10;99.90;;;;;;4992453;28;20077;-62
2023/09/06 07:01:27;;;;;;;6.38;3.80;;;17.20;99.90;;;;;;4990860;28;20034;-57
2023/09/06 07:03:54;;;;;;;12.30;4.47;;;17.20;99.90;;;;;;4990986;28;20019;-60
2023/09/06 07:06:20;;;;;;;10.07;3.70;;;17.30;99.90;;;;;;4988585;28;20018;-60
2023/09/06 07:08:46;;;;;;;8.70;4.25;;;17.40;99.90;;;;;;4988729;28;20034;-61
2023/09/06 07:11:12;;;;;;;8.70;3.95;;;17.40;99.90;;;;;;4991787;28;20053;-61
2023/09/06 07:13:38;;;;;;;5.45;3.33;;;17.60;99.90;;;;;;4988229;28;20085;-61
2023/09/06 07:16:04;;;;;;;10.13;3.83;;;17.60;99.90;;;;;;4991363;28;20019;-60
2023/09/06 07:18:30;;;;;;;8.82;3.58;;;17.80;99.90;;;;;;4990031;28;20033;-60
2023/09/06 07:20:56;;;;;;;6.80;3.15;;;17.90;99.90;;;;;;4992366;28;20011;-58
2023/09/06 07:23:21;;;;;;;12.85;3.92;;;17.90;99.90;;;;;;4992428;28;20092;-62
2023/09/06 07:25:47;;;;;;;7.32;3.33;;;18.00;99.90;;;;;;4987512;28;20027;-62
2023/09/06 07:28:16;;;;;;;10.32;3.60;;;18.20;99.90;;;;;;4988723;28;20034;-60
2023/09/06 07:30:42;;;;;;;7.10;3.42;;;18.30;99.90;;;;;;4990854;28;20038;-61
2023/09/06 07:33:08;;;;;;;7.10;3.40;;;18.40;99.90;;;;;;4987348;28;20447;-60
2023/09/06 07:35:33;;;;;;;15.90;4.95;;;18.40;99.90;;;;;;4990954;28;20034;-59
2023/09/06 07:38:00;;;;;;;9.52;3.95;;;18.50;99.90;;;;;;4988259;28;20015;-60
2023/09/06 07:40:25;;;;;;;4.82;2.97;;;18.60;99.90;;;;;;4990957;28;20030;-60
2023/09/06 07:42:51;;;;;;;8.40;3.42;;;18.60;99.90;;;;;;4991053;28;20095;-58
2023/09/06 07:45:16;;;;;;;7.50;2.85;;;18.80;99.90;;;;;;4991047;28;20041;-61
2023/09/06 07:47:43;;;;;;;4.82;3.15;;;18.80;99.90;;;;;;4986317;28;20038;-61
2023/09/06 07:50:11;;;;;;;4.80;2.78;;;18.90;99.90;;;;;;4990701;28;20023;-60
2023/09/06 07:52:37;;;;;;;5.40;3.20;;;19.00;99.90;;;;;;4985009;28;20030;-60
2023/09/06 07:55:04;;;;;;;6.32;3.30;;;19.10;99.90;;;;;;4991982;28;20444;-60
2023/09/06 07:57:29;;;;;;;6.10;3.40;;;19.20;99.90;;;;;;4991329;28;20590;-58
2023/09/06 07:59:55;;;;;;;4.72;3.17;;;19.30;99.90;;;;;;4990805;28;20034;-60
2023/09/06 08:02:21;;;;;;;6.05;3.25;;;19.40;99.90;;;;;;4988774;28;20026;-60
2023/09/06 08:04:46;;;;;;;5.05;3.28;;;19.50;99.90;;;;;;4988199;28;20037;-60
2023/09/06 08:07:12;;;;;;;8.43;3.13;;;19.50;99.90;;;;;;4990686;28;20026;-60
2023/09/06 08:09:38;;;;;;;5.88;3.10;;;19.70;99.90;;;;;;4989690;28;20649;-61
2023/09/06 08:12:07;;;;;;;8.20;3.15;;;19.80;99.90;;;;;;4991536;28;20025;-59
2023/09/06 08:14:33;;;;;;;6.65;2.67;;;19.90;99.90;;;;;;4991284;28;20033;-60
2023/09/06 08:16:58;;;;;;;10.98;3.63;;;20.00;99.90;;;;;;4989897;28;20018;-59
2023/09/06 08:19:24;;;;;;;10.15;3.50;;;20.10;99.90;;;;;;4989414;28;20113;-61
2023/09/06 08:21:49;;;;;;;4.75;3.00;;;20.20;99.90;;;;;;4991043;28;20029;-60
2023/09/06 08:24:17;;;;;;;4.88;3.45;;;20.30;99.90;;;;;;4990585;28;20038;-60
2023/09/06 08:26:43;;;;;;;5.82;3.33;;;20.40;99.90;;;;;;4990116;28;20045;-61
2023/09/06 08:29:08;;;;;;;5.80;3.17;;;20.60;99.90;;;;;;4990887;28;20400;-60
2023/09/06 08:31:34;;;;;;;6.50;3.45;;;20.70;99.90;;;;;;4989506;28;20038;-58
2023/09/06 08:33:59;;;;;;;6.57;3.00;;;20.80;99.90;;;;;;4988698;28;20037;-61
2023/09/06 08:36:26;;;;;;;3.75;2.90;;;21.00;99.90;;;;;;4986807;28;20030;-61
2023/09/06 08:38:52;;;;;;;5.75;3.33;;;21.00;99.90;;;;;;4986787;28;20019;-57
2023/09/06 08:41:20;;;;;;;6.97;3.33;;;21.20;99.90;;;;;;4991267;28;20516;-59
2023/09/06 08:43:46;;;;;;;4.00;2.92;;;21.20;99.90;;;;;;4991038;28;20044;-59
2023/09/06 08:46:18;;;;;;;7.32;3.45;;;21.30;99.90;;;;;;4990247;28;20447;-57
2023/09/06 08:48:45;;;;;;;7.82;3.10;;;21.50;99.90;;;;;;4988921;28;20030;-61
2023/09/06 08:51:11;;;;;;;5.75;3.05;;;21.60;99.90;;;;;;4991072;28;20030;-61
2023/09/06 08:53:44;;;;;;;7.78;3.83;;;21.70;99.90;;;;;;4988407;28;20030;-56
2023/09/06 08:56:10;;;;;;;9.23;2.80;;;21.90;99.90;;;;;;4990050;28;20014;-60
2023/09/06 08:58:35;;;;;;;4.13;3.17;;;22.00;99.90;;;;;;4988133;28;20114;-59
2023/09/06 09:01:04;;;;;;;4.88;3.30;;;22.10;99.90;;;;;;4985926;28;20027;-57
2023/09/06 09:03:31;;;;;;;7.38;3.70;;;22.20;99.90;;;;;;4988088;28;20030;-58
2023/09/06 09:06:06;;;;;;;5.53;3.22;;;22.30;99.90;;;;;;4988673;28;20073;-60
2023/09/06 09:08:32;;;;;;;12.05;3.35;;;22.40;99.90;;;;;;4990435;28;20057;-62
2023/09/06 09:11:12;;;;;;;6.20;3.58;;;22.60;99.90;;;;;;4988525;28;20034;-59
2023/09/06 09:13:38;;;;;;;10.55;2.90;;;22.70;99.90;;;;;;4988544;28;20033;-60
2023/09/06 09:16:11;;;;;;;6.53;3.10;;;22.90;99.90;;;;;;4988185;28;20037;-61
2023/09/06 09:18:38;;;;;;;6.72;3.60;;;23.00;99.90;;;;;;4988388;28;20039;-60
2023/09/06 09:21:06;;;;;;;4.57;3.47;;;23.20;99.90;;;;;;4989895;28;20113;-61
2023/09/06 09:23:32;;;;;;;6.43;3.58;;;23.30;99.90;;;;;;4990652;28;20468;-60
2023/09/06 09:25:57;;;;;;;12.15;3.60;;;23.40;99.90;;;;;;4990859;28;20089;-61
2023/09/06 09:28:23;;;;;;;7.05;3.13;;;23.60;99.90;;;;;;4990540;28;20480;-61
2023/09/06 09:30:50;;;;;;;12.70;3.80;;;23.70;99.90;;;;;;4987785;28;20093;-62
2023/09/06 09:33:16;;;;;;;9.75;3.92;;;23.90;99.90;;;;;;4987540;28;20117;-61
2023/09/06 09:35:43;;;;;;;6.88;3.15;;;24.00;99.90;;;;;;4991912;28;20105;-61
2023/09/06 09:38:10;;;;;;;6.13;3.63;;;24.20;99.90;;;;;;4993599;28;20030;-62
2023/09/06 09:40:37;;;;;;;5.32;3.20;;;24.30;99.90;;;;;;4992387;28;20033;-61
2023/09/06 09:43:04;;;;;;;3.83;2.97;;;24.50;99.90;;;;;;4990971;28;20023;-61
2023/09/06 09:45:43;;;;;;;4.28;3.40;;;24.50;99.90;;;;;;4991145;28;20110;-62
2023/09/06 09:48:09;;;;;;;8.15;3.20;;;24.70;99.90;;;;;;4989521;28;20235;-57
2023/09/06 09:50:36;;;;;;;6.22;3.72;;;24.90;99.90;;;;;;4993501;28;20031;-61
2023/09/06 09:53:08;;;;;;;6.85;3.38;;;25.00;99.90;;;;;;4991416;28;20026;-62
2023/09/06 09:55:40;;;;;;;9.07;3.63;;;25.20;99.90;;;;;;4992387;28;20603;-61
2023/09/06 09:58:09;;;;;;;8.10;3.53;;;25.50;99.90;;;;;;4992561;28;20030;-61
2023/09/06 10:00:39;;;;;;;6.47;3.95;;;25.70;99.90;;;;;;4991590;28;20034;-62
2023/09/06 10:03:05;;;;;;;8.80;3.25;;;25.90;99.90;;;;;;4992539;28;20023;-61
2023/09/06 10:05:31;;;;;;;8.65;3.55;;;26.10;99.90;;;;;;4993811;28;20049;-62
2023/09/06 10:08:00;;;;;;;5.07;3.38;;;26.30;99.90;;;;;;4993167;28;20025;-62
2023/09/06 10:10:27;;;;;;;7.57;3.38;;;26.50;99.90;;;;;;4993178;28;20038;-62
2023/09/06 10:12:53;;;;;;;7.63;3.25;;;26.70;99.90;;;;;;4989603;28;20022;-62
2023/09/06 10:15:23;;;;;;;3.55;2.92;;;26.70;99.90;;;;;;4989797;28;20026;-62
2023/09/06 10:17:50;;;;;;;8.45;3.08;;;27.00;99.90;;;;;;4989900;28;20021;-62
2023/09/06 10:20:16;;;;;;;6.22;3.05;;;27.20;99.90;;;;;;4992461;28;20022;-61
2023/09/06 10:22:43;;;;;;;7.90;2.90;;;27.20;99.90;;;;;;4990336;28;20453;-62
2023/09/06 10:25:10;;;;;;;5.47;3.28;;;27.50;99.90;;;;;;4992255;28;20054;-59
2023/09/06 10:27:51;;;;;;;4.82;3.00;;;27.60;99.90;;;;;;4988255;28;20042;-58
2023/09/06 10:30:28;;;;;;;6.93;3.00;;;27.80;99.90;;;;;;4984799;28;20106;-58
2023/09/06 10:32:54;;;;;;;6.63;3.08;;;27.90;99.90;;;;;;4986917;28;20034;-61
2023/09/06 10:35:23;;;;;;;4.45;3.35;;;28.00;99.90;;;;;;4991363;28;20018;-62
2023/09/06 10:38:07;;;;;;;6.82;3.70;;;28.30;99.90;;;;;;4988806;28;20019;-60
2023/09/06 10:40:47;;;;;;;6.40;3.58;;;28.40;99.90;;;;;;4989444;28;20038;-61
2023/09/06 10:43:13;;;;;;;13.05;3.17;;;28.50;99.90;;;;;;4988274;28;20030;-63
2023/09/06 10:45:40;;;;;;;9.60;3.20;;;28.70;99.90;;;;;;5005223;28;20034;-62
2023/09/06 10:48:09;;;;;;;4.78;3.13;;;28.80;99.90;;;;;;4991593;28;20547;-62
2023/09/06 10:50:36;;;;;;;6.60;3.30;;;28.90;99.90;;;;;;4992870;28;20034;-62
2023/09/06 10:53:02;;;;;;;7.30;3.35;;;29.10;99.90;;;;;;4992142;28;20602;-62
2023/09/06 10:55:30;;;;;;;9.30;3.53;;;29.10;99.60;;;;;;4992874;28;20042;-63
2023/09/06 10:57:58;;;;;;;4.35;2.75;;;29.10;99.30;;;;;;4989630;28;20046;-62
2023/09/06 11:00:27;;;;;;;8.27;3.55;;;29.10;99.90;;;;;;4989158;28;20065;-62
2023/09/06 11:03:04;;;;;;;6.78;3.60;;;29.10;98.20;;;;;;4990628;28;20025;-61
2023/09/06 11:05:42;;;;;;;4.38;3.10;;;29.20;99.40;;;;;;4991917;28;20047;-62
2023/09/06 11:08:09;;;;;;;5.50;3.20;;;29.40;98.20;;;;;;4991245;28;20026;-61
2023/09/06 11:10:36;;;;;;;5.35;3.15;;;29.30;99.70;;;;;;4992638;28;20042;-59
2023/09/06 11:13:12;;;;;;;7.65;3.65;;;29.30;99.50;;;;;;4988927;28;20030;-60
2023/09/06 11:15:38;;;;;;;11.35;3.60;;;29.40;99.00;;;;;;4987192;28;20034;-57
2023/09/06 11:18:05;;;;;;;3.80;2.97;;;29.30;99.50;;;;;;4989282;28;20030;-62
2023/09/06 11:20:32;;;;;;;4.10;3.22;;;29.20;99.20;;;;;;4990711;28;20488;-62
2023/09/06 11:22:59;;;;;;;5.18;3.47;;;29.50;99.60;;;;;;4989858;28;20081;-61
2023/09/06 11:25:26;;;;;;;9.73;3.95;;;29.40;96.50;;;;;;4992432;28;20034;-62
2023/09/06 11:27:56;;;;;;;5.10;2.97;;;29.50;96.20;;;;;;4987697;28;20411;-62
2023/09/06 11:30:23;;;;;;;7.07;3.70;;;29.80;98.40;;;;;;4986751;28;20457;-62
2023/09/06 11:32:50;;;;;;;6.38;3.28;;;29.80;98.00;;;;;;4985835;28;20030;-62
2023/09/06 11:35:16;;;;;;;4.63;3.10;;;30.00;99.80;;;;;;4989171;28;20026;-63
2023/09/06 11:37:50;;;;;;;6.13;3.58;;;30.20;98.10;;;;;;4985062;28;20604;-60
2023/09/06 11:40:19;;;;;;;4.18;3.05;;;30.30;96.30;;;;;;4988448;28;20026;-61
2023/09/06 11:42:52;;;;;;;8.88;3.35;;;30.30;95.50;;;;;;5006761;28;20467;-63
2023/09/06 11:45:20;;;;;;;5.70;3.40;;;30.20;94.50;;;;;;4989060;28;20464;-61
2023/09/06 11:47:49;;;;;;;4.88;3.20;;;30.40;95.30;;;;;;4990940;28;20471;-61
2023/09/06 11:50:21;;;;;;;7.53;3.80;;;30.40;96.20;;;;;;4989529;28;20022;-60
2023/09/06 11:52:53;;;;;;;8.43;3.90;;;30.60;95.70;;;;;;4986436;28;20030;-61
2023/09/06 11:55:19;;;;;;;4.60;3.15;;;30.70;94.20;;;;;;4985896;28;20388;-59
2023/09/06 11:57:52;;;;;;;5.95;2.80;;;30.90;95.40;;;;;;4986748;28;20034;-58
2023/09/06 12:00:35;;;;;;;7.32;3.40;;;30.90;92.80;;;;;;4982198;28;20022;-61
2023/09/06 12:03:07;;;;;;;4.68;3.15;;;31.00;92.00;;;;;;4988550;28;20421;-63
2023/09/06 12:05:36;;;;;;;5.05;3.20;;;31.30;91.90;;;;;;4988907;28;20041;-62
2023/09/06 12:08:03;;;;;;;5.50;3.22;;;31.40;93.20;;;;;;4988861;28;20065;-61
2023/09/06 12:10:29;;;;;;;10.70;3.22;;;31.60;91.30;;;;;;4989820;28;20109;-61
2023/09/06 12:12:56;;;;;;;4.40;3.10;;;31.50;91.00;;;;;;4985373;28;20157;-61
2023/09/06 12:15:25;;;;;;;8.02;3.13;;;31.60;91.20;;;;;;4989779;28;20403;-61
2023/09/06 12:17:51;;;;;;;5.88;3.50;;;32.00;90.60;;;;;;4988896;28;20026;-62
2023/09/06 12:20:27;;;;;;;6.13;3.58;;;32.00;90.40;;;;;;4991419;28;20022;-60
2023/09/06 12:22:53;;;;;;;3.58;3.00;;;31.50;91.60;;;;;;4991201;28;20018;-61
2023/09/06 12:25:19;;;;;;;5.40;3.95;;;31.40;88.30;;;;;;4984320;28;20444;-61
2023/09/06 12:27:46;;;;;;;6.57;3.03;;;31.50;90.70;;;;;;4989463;28;20100;-60
2023/09/06 12:30:14;;;;;;;6.63;3.13;;;31.70;88.20;;;;;;4988523;28;20038;-61
2023/09/06 12:32:40;;;;;;;4.18;3.10;;;31.70;86.40;;;;;;4988388;28;20511;-60
2023/09/06 12:35:07;;;;;;;6.45;3.22;;;31.50;83.10;;;;;;4990097;28;20034;-61
2023/09/06 12:37:35;;;;;;;5.57;3.10;;;31.70;91.20;;;;;;4990590;28;20022;-62
2023/09/06 12:40:01;;;;;;;7.50;3.05;;;32.20;86.90;;;;;;4989225;28;20031;-62
2023/09/06 12:42:27;;;;;;;7.85;3.45;;;32.20;90.20;;;;;;4986927;28;20084;-61
2023/09/06 12:44:52;;;;;;;6.57;3.35;;;32.20;85.40;;;;;;4979125;28;20031;-60
2023/09/06 12:47:19;;;;;;;5.03;3.38;;;32.00;85.40;;;;;;4976851;28;20026;-62